Dover, NH (03822)

9:27 AM EDT on October 20, 2014 (GMT -0400)
Frenchtown | Change Station
CLOSE
Current Station
Personal Weather Station
Location: Somersworth, NH
Elevation: 197 ft
Nearby Weather Stations

Elev 197 ft 43.23 °N, 70.86 °W | Updated 1 minute ago

Mostly Cloudy
Mostly Cloudy
43.0 °F
Feels Like 43 °F
N
1.7
Wind Variable Wind from South

Today
High -- | Low -- °F
--% Chance of Precip.
Yesterday
High -- | Low -- °F
Precip. -- in
7:03 AM 5:52 PM
Waning Crescent, 11% visible
Pressure 30.00 in
Visibility 10.0 miles
Clouds Clear
Windchill 43 °F
Dew Point 32 °F
Humidity 64%
Rainfall 0.00 in
Snow Depth Not available.
UV 1 out of 12
Pollen .10 out of 12
Ozone Good
PM2.5 Good
Flu Activity Local Activity
METAR KDAW 201251Z AUTO VRB05KT 10SM CLR 04/M04 A3000 RMK AO2 SLP158 T00441039

More Conditions Fewer Conditions

Pressure 30.00 in
Visibility 10.0 miles
Clouds Clear
Windchill 43 °F
Dew Point 32 °F
Humidity 64%
Rainfall 0.00 in
Snow Depth Not available.
UV 1 out of 12
Pollen .10 out of 12
Ozone Good
PM2.5 Good
Flu Activity Local Activity
METAR KDAW 201251Z AUTO VRB05KT 10SM CLR 04/M04 A3000 RMK AO2 SLP158 T00441039

More Conditions Fewer Conditions

10-Day Weather Forecast

Almanac

Astronomy

Oct. 20, 2014 Rise Set
Actual Time 7:03 AM EDT 5:52 PM EDT
Civil Twilight 6:34 AM EDT 6:21 PM EDT
Nautical Twilight 6:01 AM EDT 6:54 PM EDT
Astronomical Twilight 5:28 AM EDT 7:27 PM EDT
Moon 3:43 AM EDT 4:17 PM EDT
Length of Visible Light 11h 47m
Length of Day
10h 49m
Waning Crescent, 11% of the Moon is Illuminated
Today
Waning Crescent
Oct 23
New
Oct 30
First Quarter
Nov 6
Full
Nov 14
Last Quarter

Today's Extremes

State Highs State Lows

Community

WunderPhotos

Upload Photos

1,763,378 photos uploaded!

Nearby

Air Quality

  Air Quality AQ Index Pollutant
Yesterday Good
OZONE
Yesterday Good
PM2.5
Current Good
OZONE
Current Good
PM2.5
Monday Good
PM2.5
Monday Good
OZONE

Snow Depth

Station Depth Elevation
No new snow has been reported.

Earthquake Activity

City Distance Mag. Time & Date
No recent earthquake activity has been reported nearby.
Minimum magnitude displayed is 2.5.

Coastal Water Temperatures

Place Temperature
Wells, ME 50.0 °F
Portland, ME 55.9 °F

Nearby Weather Stations